createdAt,value
2018-10-17T00:01:23.018Z,11.17
2018-10-17T00:03:52.486Z,10.57
2018-10-17T00:06:21.514Z,10.20
2018-10-17T00:08:50.687Z,10.23
2018-10-17T00:11:19.720Z,10.30
2018-10-17T00:13:48.759Z,9.30
2018-10-17T00:16:17.803Z,10.20
2018-10-17T00:18:46.839Z,11.17
2018-10-17T00:21:15.892Z,11.33
2018-10-17T00:23:44.919Z,11.10
2018-10-17T00:26:13.971Z,11.17
2018-10-17T00:28:42.997Z,10.73
2018-10-17T00:31:12.155Z,10.10
2018-10-17T00:33:41.183Z,11.17
2018-10-17T00:36:10.335Z,11.20
2018-10-17T00:38:39.488Z,10.87
2018-10-17T00:41:08.542Z,11.80
2018-10-17T00:43:37.551Z,10.97
2018-10-17T00:46:06.655Z,11.43
2018-10-17T00:48:35.943Z,11.50
2018-10-17T00:51:05.411Z,11.70
2018-10-17T00:53:34.423Z,12.03
2018-10-17T00:56:03.462Z,11.80
2018-10-17T00:58:32.494Z,11.33
2018-10-17T01:01:01.571Z,11.43
2018-10-17T01:03:30.601Z,11.30
2018-10-17T01:05:59.711Z,10.30
2018-10-17T01:08:28.763Z,10.77
2018-10-17T01:10:57.844Z,11.10
2018-10-17T01:13:26.888Z,11.00
2018-10-17T01:15:55.935Z,10.40
2018-10-17T01:18:24.942Z,10.53
2018-10-17T01:20:54.058Z,11.10
2018-10-17T01:23:23.102Z,10.90
2018-10-17T01:25:52.159Z,11.30
2018-10-17T01:28:21.186Z,11.40
2018-10-17T01:30:50.336Z,10.83
2018-10-17T01:33:19.377Z,11.27
2018-10-17T01:35:48.423Z,11.97
2018-10-17T01:38:17.459Z,10.93
2018-10-17T01:40:46.562Z,11.57
2018-10-17T01:43:15.758Z,10.77
2018-10-17T01:45:44.751Z,11.13
2018-10-17T01:48:13.818Z,11.33
2018-10-17T01:50:42.851Z,10.90
2018-10-17T01:53:12.024Z,10.83
2018-10-17T01:55:40.934Z,10.50
2018-10-17T01:58:09.941Z,11.50
2018-10-17T02:00:39.262Z,11.00
2018-10-17T02:03:08.292Z,11.00
2018-10-17T02:05:37.337Z,11.07
2018-10-17T02:08:06.360Z,11.13
2018-10-17T02:10:35.420Z,12.33
2018-10-17T02:13:04.541Z,11.50
2018-10-17T02:15:33.547Z,11.60
2018-10-17T02:18:02.738Z,12.57
2018-10-17T02:20:31.795Z,12.03
2018-10-17T02:23:01.079Z,12.43
2018-10-17T02:25:30.047Z,12.83
2018-10-17T02:27:59.101Z,11.30
2018-10-17T02:30:28.124Z,12.13
2018-10-17T02:32:57.147Z,11.93
2018-10-17T02:35:26.186Z,11.40
2018-10-17T02:37:55.299Z,11.20
2018-10-17T02:40:24.356Z,11.13
2018-10-17T02:42:53.381Z,11.33
2018-10-17T02:45:22.387Z,11.50
2018-10-17T02:47:51.554Z,11.33
2018-10-17T02:50:20.603Z,12.17
2018-10-17T02:52:49.655Z,12.50
2018-10-17T02:55:18.695Z,11.60
2018-10-17T02:57:47.855Z,11.70
2018-10-17T03:00:17.521Z,12.60
2018-10-17T03:02:46.568Z,11.90
2018-10-17T03:05:15.671Z,11.37
2018-10-17T03:07:44.623Z,12.10
2018-10-17T03:10:13.678Z,12.03
2018-10-17T03:12:42.712Z,11.93
2018-10-17T03:15:11.757Z,11.60
2018-10-17T03:17:40.812Z,11.63
2018-10-17T03:20:10.459Z,10.80
2018-10-17T03:22:39.717Z,11.43
2018-10-17T03:25:09.637Z,11.90
2018-10-17T03:27:38.637Z,11.00
2018-10-17T03:30:07.713Z,10.77
2018-10-17T03:32:36.759Z,11.87
2018-10-17T03:35:06.588Z,11.47
2018-10-17T03:37:36.078Z,12.13
2018-10-17T03:40:05.719Z,12.63
2018-10-17T03:42:34.805Z,12.73
2018-10-17T03:45:03.868Z,12.60
2018-10-17T03:47:32.904Z,13.10
2018-10-17T03:50:02.073Z,12.50
2018-10-17T03:52:31.080Z,12.63
2018-10-17T03:55:00.145Z,12.57
2018-10-17T03:57:29.154Z,11.40
2018-10-17T03:59:58.178Z,11.73
2018-10-17T04:02:27.226Z,11.57
2018-10-17T04:04:56.286Z,11.83
2018-10-17T04:07:25.307Z,11.80
2018-10-17T04:09:54.360Z,12.23
2018-10-17T04:12:23.514Z,12.80
2018-10-17T04:14:52.539Z,12.13
2018-10-17T04:17:21.577Z,11.97
2018-10-17T04:19:50.587Z,12.93
2018-10-17T04:22:19.626Z,12.40
2018-10-17T04:24:48.648Z,12.63
2018-10-17T04:27:17.740Z,12.80
2018-10-17T04:29:46.782Z,12.30
2018-10-17T04:32:15.887Z,12.03
2018-10-17T04:34:44.896Z,12.47
2018-10-17T04:37:14.043Z,11.97
2018-10-17T04:39:42.996Z,12.13
2018-10-17T04:42:12.071Z,12.70
2018-10-17T04:44:41.264Z,12.80
2018-10-17T04:47:10.388Z,12.80
2018-10-17T04:49:40.159Z,13.63
2018-10-17T04:52:09.188Z,12.90
2018-10-17T04:54:38.216Z,12.93
2018-10-17T04:57:07.253Z,12.87
2018-10-17T04:59:36.275Z,12.50
2018-10-17T05:02:05.341Z,13.43
2018-10-17T05:04:34.434Z,13.03
2018-10-17T05:07:03.457Z,12.30
2018-10-17T05:09:32.496Z,12.63
2018-10-17T05:12:01.520Z,13.47
2018-10-17T05:14:30.580Z,12.53
2018-10-17T05:16:59.641Z,13.50
2018-10-17T05:19:28.724Z,13.07
2018-10-17T05:21:57.872Z,13.03
2018-10-17T05:24:26.894Z,12.80
2018-10-17T05:26:55.941Z,13.70
2018-10-17T05:29:24.973Z,12.73
2018-10-17T05:31:54.007Z,12.47
2018-10-17T05:34:23.079Z,12.20
2018-10-17T05:36:52.471Z,12.53
2018-10-17T05:39:21.576Z,12.40
2018-10-17T05:41:50.642Z,12.83
2018-10-17T05:44:19.833Z,13.10
2018-10-17T05:46:48.880Z,12.90
2018-10-17T05:49:17.940Z,12.73
2018-10-17T05:51:47.195Z,12.20
2018-10-17T05:54:16.411Z,13.00
2018-10-17T05:56:45.465Z,14.10
2018-10-17T05:59:14.502Z,13.83
2018-10-17T06:01:43.727Z,12.67
2018-10-17T06:04:12.607Z,13.07
2018-10-17T06:06:41.655Z,13.67
2018-10-17T06:09:11.847Z,13.07
2018-10-17T06:11:41.103Z,13.57
2018-10-17T06:14:14.491Z,14.20
2018-10-17T06:16:44.197Z,14.07
2018-10-17T06:19:13.674Z,14.53
2018-10-17T06:21:42.724Z,14.20
2018-10-17T06:24:11.757Z,13.67
2018-10-17T06:26:40.785Z,14.57
2018-10-17T06:29:09.935Z,15.03
2018-10-17T06:31:38.895Z,14.17
2018-10-17T06:34:08.106Z,14.87
2018-10-17T06:36:37.048Z,14.00
2018-10-17T06:39:08.182Z,13.93
2018-10-17T06:41:37.222Z,13.80
2018-10-17T06:44:06.613Z,15.07
2018-10-17T06:46:35.567Z,13.70
2018-10-17T06:49:04.856Z,13.70
2018-10-17T06:51:33.831Z,13.10
2018-10-17T06:54:03.037Z,13.67
2018-10-17T06:56:32.050Z,12.93
2018-10-17T06:59:01.186Z,13.67
2018-10-17T07:01:30.177Z,13.40
2018-10-17T07:03:59.372Z,13.83
2018-10-17T07:06:28.406Z,14.40
2018-10-17T07:08:57.460Z,15.47
2018-10-17T07:11:26.483Z,17.43
2018-10-17T07:13:55.563Z,15.37
2018-10-17T07:16:24.670Z,15.00
2018-10-17T07:18:53.701Z,16.77
2018-10-17T07:21:22.795Z,17.97
2018-10-17T07:23:51.916Z,17.63
2018-10-17T07:26:21.020Z,17.43
2018-10-17T07:28:50.140Z,17.10
2018-10-17T07:31:19.143Z,16.70
2018-10-17T07:33:48.283Z,16.87
2018-10-17T07:36:17.441Z,17.17
2018-10-17T07:38:46.682Z,17.57
2018-10-17T07:41:15.724Z,18.10
2018-10-17T07:43:48.623Z,18.90
2018-10-17T07:46:21.040Z,19.97
2018-10-17T07:48:50.103Z,18.97
2018-10-17T07:51:19.187Z,19.80
2018-10-17T07:53:48.247Z,18.13
2018-10-17T07:56:17.298Z,18.23
2018-10-17T07:58:46.939Z,19.03
2018-10-17T08:01:16.061Z,21.97
2018-10-17T08:03:45.165Z,24.97
2018-10-17T08:06:14.607Z,29.10
2018-10-17T08:08:43.747Z,28.33
2018-10-17T08:11:13.039Z,27.60
2018-10-17T08:13:42.100Z,28.47
2018-10-17T08:16:11.317Z,29.23
2018-10-17T08:18:40.355Z,27.77
2018-10-17T08:21:09.483Z,28.00
2018-10-17T08:23:38.481Z,27.87
2018-10-17T08:26:07.518Z,26.50
2018-10-17T08:28:36.563Z,28.00
2018-10-17T08:31:05.631Z,27.97
2018-10-17T08:33:34.652Z,27.93
2018-10-17T08:36:03.984Z,26.47
2018-10-17T08:38:32.883Z,26.23
2018-10-17T08:41:02.072Z,26.87
2018-10-17T08:43:30.956Z,26.37
2018-10-17T08:45:59.983Z,27.57
2018-10-17T08:48:29.027Z,27.10
2018-10-17T08:50:58.130Z,26.80
2018-10-17T08:53:27.205Z,28.00
2018-10-17T08:55:56.261Z,28.10
2018-10-17T08:58:25.283Z,27.47
2018-10-17T09:00:54.319Z,27.53
2018-10-17T09:03:23.379Z,27.50
2018-10-17T09:05:52.480Z,27.63
2018-10-17T09:08:21.526Z,27.13
2018-10-17T09:10:50.489Z,26.63
2018-10-17T09:13:19.644Z,27.20
2018-10-17T09:15:48.603Z,27.00
2018-10-17T09:18:17.698Z,27.80
2018-10-17T09:20:47.078Z,28.27
2018-10-17T09:23:15.971Z,27.77
2018-10-17T09:25:45.095Z,27.27
2018-10-17T09:28:14.051Z,28.47
2018-10-17T09:30:43.157Z,28.23
2018-10-17T09:33:12.115Z,28.10
2018-10-17T09:35:41.304Z,27.30
2018-10-17T09:38:10.276Z,28.33
2018-10-17T09:40:39.488Z,26.10
2018-10-17T09:43:08.575Z,26.90
2018-10-17T09:45:37.568Z,26.20
2018-10-17T09:48:06.749Z,27.13
2018-10-17T09:50:35.688Z,26.23
2018-10-17T09:53:04.925Z,26.93
2018-10-17T09:55:33.956Z,30.00
2018-10-17T09:58:03.139Z,29.23
2018-10-17T10:00:37.467Z,28.47
2018-10-17T10:03:06.533Z,28.43
2018-10-17T10:05:35.563Z,28.63
2018-10-17T10:08:04.746Z,29.97
2018-10-17T10:10:33.792Z,30.67
2018-10-17T10:13:02.810Z,30.67
2018-10-17T10:15:31.876Z,29.57
2018-10-17T10:18:00.970Z,28.43
2018-10-17T10:20:30.062Z,28.67
2018-10-17T10:22:59.113Z,28.10
2018-10-17T10:25:28.148Z,26.60
2018-10-17T10:27:57.274Z,27.00
2018-10-17T10:30:26.253Z,28.23
2018-10-17T10:32:55.263Z,26.23
2018-10-17T10:35:24.292Z,27.40
2018-10-17T10:37:54.084Z,26.40
2018-10-17T10:40:23.157Z,28.70
2018-10-17T10:42:52.123Z,29.33
2018-10-17T10:45:21.736Z,28.40
2018-10-17T10:47:50.655Z,29.67
2018-10-17T10:50:19.762Z,28.32
2018-10-17T10:52:48.979Z,28.15
2018-10-17T10:55:18.008Z,27.80
2018-10-17T10:57:47.019Z,28.10
2018-10-17T11:00:16.136Z,26.15
2018-10-17T11:02:45.162Z,28.10
2018-10-17T11:05:14.354Z,27.35
2018-10-17T11:07:43.304Z,28.47
2018-10-17T11:10:12.322Z,28.47
2018-10-17T11:12:41.507Z,26.52
2018-10-17T11:15:10.873Z,27.82
2018-10-17T11:17:39.904Z,28.12
2018-10-17T11:20:09.332Z,28.77
2018-10-17T11:22:38.447Z,27.85
2018-10-17T11:25:08.380Z,30.72
2018-10-17T11:27:37.414Z,29.05
2018-10-17T11:30:08.144Z,29.05
2018-10-17T11:32:37.309Z,30.17
2018-10-17T11:35:07.616Z,27.62
2018-10-17T11:37:36.715Z,25.95
2018-10-17T11:40:05.813Z,25.85
2018-10-17T11:42:34.899Z,24.12
2018-10-17T11:45:04.121Z,23.05
2018-10-17T11:47:33.273Z,22.70
2018-10-17T11:50:02.435Z,23.50
2018-10-17T11:52:31.700Z,21.40
2018-10-17T11:55:00.856Z,22.45
2018-10-17T11:57:29.878Z,22.93
2018-10-17T11:59:59.056Z,22.73
2018-10-17T12:02:28.097Z,24.37
2018-10-17T12:04:57.559Z,24.52
2018-10-17T12:07:26.203Z,24.20
2018-10-17T12:09:56.777Z,24.92
2018-10-17T12:12:26.453Z,24.92
2018-10-17T12:14:55.454Z,23.73
2018-10-17T12:17:24.615Z,23.25
2018-10-17T12:19:53.763Z,23.25
2018-10-17T12:22:22.928Z,21.95
2018-10-17T12:24:52.364Z,21.55
2018-10-17T12:27:21.633Z,20.70
2018-10-17T12:29:51.123Z,20.25
2018-10-17T12:32:20.597Z,20.92
2018-10-17T12:34:51.107Z,19.30
2018-10-17T12:37:20.734Z,20.37
2018-10-17T12:39:49.943Z,17.75
2018-10-17T12:42:19.353Z,19.15
2018-10-17T12:44:49.356Z,17.02
2018-10-17T12:47:18.868Z,17.32
2018-10-17T12:49:48.646Z,17.02
2018-10-17T12:52:17.666Z,18.20
2018-10-17T12:54:46.967Z,18.75
2018-10-17T12:57:16.049Z,16.60
2018-10-17T12:59:45.728Z,18.23
2018-10-17T13:02:14.727Z,17.15
2018-10-17T13:04:43.995Z,16.62
2018-10-17T13:07:13.387Z,16.85
2018-10-17T13:09:42.419Z,16.90
2018-10-17T13:12:11.899Z,16.93
2018-10-17T13:14:40.955Z,16.40
2018-10-17T13:17:10.295Z,18.80
2018-10-17T13:19:39.312Z,16.80
2018-10-17T13:22:10.467Z,17.42
2018-10-17T13:24:39.708Z,18.80
2018-10-17T13:27:08.767Z,16.50
2018-10-17T13:29:37.965Z,15.72
2018-10-17T13:32:07.185Z,16.60
2018-10-17T13:34:36.435Z,15.50
2018-10-17T13:37:05.789Z,14.40
2018-10-17T13:39:36.863Z,14.10
2018-10-17T13:42:06.009Z,14.35
2018-10-17T13:44:34.967Z,13.40
2018-10-17T13:47:06.308Z,14.23
2018-10-17T13:49:35.409Z,13.85
2018-10-17T13:52:04.667Z,12.05
2018-10-17T13:54:33.776Z,11.68
2018-10-17T13:57:02.861Z,13.45
2018-10-17T13:59:31.937Z,14.65
2018-10-17T14:02:00.919Z,13.38
2018-10-17T14:04:29.963Z,14.10
2018-10-17T14:06:59.073Z,13.43
2018-10-17T14:09:28.051Z,13.08
2018-10-17T14:11:57.063Z,12.45
2018-10-17T14:14:26.092Z,13.62
2018-10-17T14:16:55.224Z,11.57
2018-10-17T14:19:24.259Z,13.05
2018-10-17T14:21:53.295Z,13.50
2018-10-17T14:24:22.342Z,11.95
2018-10-17T14:26:51.473Z,12.98
2018-10-17T14:29:20.526Z,13.93
2018-10-17T14:31:49.549Z,12.03
2018-10-17T14:34:18.596Z,13.60
2018-10-17T14:36:47.624Z,13.72
2018-10-17T14:39:16.753Z,12.15
2018-10-17T14:41:45.710Z,12.55
2018-10-17T14:44:14.847Z,12.50
2018-10-17T14:46:43.872Z,12.98
2018-10-17T14:49:12.907Z,13.03
2018-10-17T14:51:41.980Z,14.20
2018-10-17T14:54:11.007Z,13.15
2018-10-17T14:56:40.079Z,12.35
2018-10-17T14:59:09.178Z,13.00
2018-10-17T15:01:38.155Z,12.70
2018-10-17T15:04:07.177Z,13.20
2018-10-17T15:06:36.244Z,12.15
2018-10-17T15:09:07.228Z,12.33
2018-10-17T15:11:36.699Z,11.97
2018-10-17T15:14:05.644Z,11.18
2018-10-17T15:16:34.669Z,11.38
2018-10-17T15:19:03.712Z,11.35
2018-10-17T15:21:32.755Z,11.40
2018-10-17T15:24:01.842Z,11.55
2018-10-17T15:26:30.923Z,11.50
2018-10-17T15:29:00.667Z,11.28
2018-10-17T15:31:29.788Z,11.63
2018-10-17T15:33:58.820Z,10.68
2018-10-17T15:36:27.860Z,12.58
2018-10-17T15:38:57.094Z,14.43
2018-10-17T15:41:26.197Z,13.22
2018-10-17T15:43:55.243Z,13.13
2018-10-17T15:46:24.259Z,11.28
2018-10-17T15:48:53.307Z,11.35
2018-10-17T15:51:22.336Z,11.63
2018-10-17T15:53:51.412Z,11.43
2018-10-17T15:56:20.409Z,12.15
2018-10-17T15:58:49.463Z,12.40
2018-10-17T16:01:18.608Z,12.35
2018-10-17T16:03:47.717Z,12.03
2018-10-17T16:06:17.027Z,11.90
2018-10-17T16:08:46.003Z,11.65
2018-10-17T16:11:15.015Z,12.47
2018-10-17T16:13:44.076Z,11.88
2018-10-17T16:16:13.111Z,11.93
2018-10-17T16:18:42.155Z,10.03
2018-10-17T16:21:11.175Z,10.83
2018-10-17T16:23:41.235Z,9.43
2018-10-17T16:26:10.296Z,9.47
2018-10-17T16:28:39.302Z,9.40
2018-10-17T16:31:08.529Z,9.57
2018-10-17T16:33:37.456Z,9.47
2018-10-17T16:36:06.739Z,9.50
2018-10-17T16:38:35.799Z,9.77
2018-10-17T16:41:05.625Z,9.57
2018-10-17T16:43:36.343Z,10.00
2018-10-17T16:46:06.370Z,9.83
2018-10-17T16:48:38.166Z,9.33
2018-10-17T16:51:08.742Z,9.27
2018-10-17T16:53:39.726Z,9.03
2018-10-17T16:56:10.524Z,9.23
2018-10-17T16:58:40.946Z,8.83
2018-10-17T17:01:10.727Z,8.47
2018-10-17T17:03:45.704Z,8.47
2018-10-17T17:06:14.828Z,8.30
2018-10-17T17:08:43.795Z,8.53
2018-10-17T17:11:12.990Z,7.73
2018-10-17T17:13:42.004Z,7.60
2018-10-17T17:16:11.066Z,7.80
2018-10-17T17:18:40.076Z,8.23
2018-10-17T17:21:09.196Z,7.93
2018-10-17T17:23:38.159Z,8.03
2018-10-17T17:26:07.291Z,8.00
2018-10-17T17:28:36.341Z,7.97
2018-10-17T17:31:05.432Z,7.80
2018-10-17T17:33:34.503Z,7.60
2018-10-17T17:36:03.564Z,7.70
2018-10-17T17:38:32.571Z,7.90
2018-10-17T17:41:01.697Z,7.67
2018-10-17T17:43:30.727Z,8.13
2018-10-17T17:45:59.847Z,8.33
2018-10-17T17:48:28.831Z,8.50
2018-10-17T17:50:58.011Z,7.77
2018-10-17T17:53:27.071Z,7.87
2018-10-17T17:55:56.088Z,8.53
2018-10-17T17:58:25.670Z,8.47
2018-10-17T18:00:54.675Z,8.43
2018-10-17T18:03:23.725Z,8.50
2018-10-17T18:05:52.891Z,8.00
2018-10-17T18:08:21.996Z,8.10
2018-10-17T18:10:51.157Z,7.90
2018-10-17T18:13:20.210Z,8.17
2018-10-17T18:15:49.227Z,8.30
2018-10-17T18:18:18.400Z,8.50
2018-10-17T18:20:47.414Z,8.70
2018-10-17T18:23:16.455Z,8.43
2018-10-17T18:25:45.506Z,8.30
2018-10-17T18:28:15.509Z,8.93
2018-10-17T18:30:44.433Z,9.10
2018-10-17T18:33:13.551Z,8.13
2018-10-17T18:35:42.645Z,9.03
2018-10-17T18:38:11.719Z,8.67
2018-10-17T18:40:40.894Z,8.80
2018-10-17T18:43:09.865Z,8.13
2018-10-17T18:45:38.977Z,8.67
2018-10-17T18:48:08.016Z,8.57
2018-10-17T18:50:37.032Z,8.87
2018-10-17T18:53:06.111Z,9.30
2018-10-17T18:55:35.253Z,9.37
2018-10-17T18:58:04.310Z,8.73
2018-10-17T19:00:33.439Z,8.70
2018-10-17T19:03:09.873Z,9.27
2018-10-17T19:05:38.812Z,9.23
2018-10-17T19:08:08.430Z,9.27
2018-10-17T19:10:37.393Z,9.03
2018-10-17T19:13:07.117Z,9.47
2018-10-17T19:15:37.051Z,9.40
2018-10-17T19:18:06.387Z,9.60
2018-10-17T19:20:35.479Z,9.60
2018-10-17T19:23:04.797Z,9.50
2018-10-17T19:25:35.825Z,8.70
2018-10-17T19:28:05.026Z,9.50
2018-10-17T19:30:34.180Z,9.37
2018-10-17T19:33:03.988Z,9.13
2018-10-17T19:35:33.019Z,9.67
2018-10-17T19:38:02.127Z,9.50
2018-10-17T19:40:31.147Z,9.90
2018-10-17T19:43:00.451Z,10.07
2018-10-17T19:45:29.516Z,10.03
2018-10-17T19:47:58.631Z,10.50
2018-10-17T19:50:27.578Z,10.13
2018-10-17T19:52:56.643Z,10.43
2018-10-17T19:55:25.665Z,10.50
2018-10-17T19:57:54.731Z,10.00
2018-10-17T20:00:23.783Z,9.60
2018-10-17T20:02:52.854Z,9.50
2018-10-17T20:05:21.867Z,9.70
2018-10-17T20:07:51.020Z,9.77
2018-10-17T20:10:19.922Z,9.97
2018-10-17T20:12:48.983Z,9.50
2018-10-17T20:15:18.153Z,10.30
2018-10-17T20:17:47.000Z,9.20
2018-10-17T20:20:16.057Z,9.90
2018-10-17T20:22:45.103Z,10.40
2018-10-17T20:25:14.230Z,9.77
2018-10-17T20:27:43.219Z,10.23
2018-10-17T20:30:12.296Z,10.70
2018-10-17T20:32:41.399Z,9.97
2018-10-17T20:35:10.542Z,10.17
2018-10-17T20:37:39.511Z,9.30
2018-10-17T20:40:08.584Z,9.73
2018-10-17T20:42:37.625Z,8.97
2018-10-17T20:45:07.001Z,9.27
2018-10-17T20:47:36.007Z,9.10
2018-10-17T20:50:05.612Z,9.40
2018-10-17T20:52:34.634Z,8.87
2018-10-17T20:55:03.651Z,9.00
2018-10-17T20:57:32.687Z,8.87
2018-10-17T21:00:02.228Z,8.73
2018-10-17T21:02:31.311Z,9.83
2018-10-17T21:05:00.457Z,9.53
2018-10-17T21:07:29.480Z,9.10
2018-10-17T21:09:58.547Z,9.47
2018-10-17T21:12:27.551Z,9.27
2018-10-17T21:14:56.615Z,9.20
2018-10-17T21:17:25.663Z,9.23
2018-10-17T21:19:54.776Z,9.47
2018-10-17T21:22:23.762Z,9.47
2018-10-17T21:24:52.768Z,8.93
2018-10-17T21:27:21.802Z,9.20
2018-10-17T21:29:50.828Z,9.07
2018-10-17T21:32:19.951Z,9.27
2018-10-17T21:34:48.967Z,9.47
2018-10-17T21:37:18.066Z,9.23
2018-10-17T21:39:47.107Z,9.47
2018-10-17T21:42:16.175Z,10.17
2018-10-17T21:44:45.220Z,9.40
2018-10-17T21:47:14.350Z,10.40
2018-10-17T21:49:43.388Z,10.43
2018-10-17T21:52:12.407Z,11.57
2018-10-17T21:54:41.443Z,11.47
2018-10-17T21:57:10.490Z,10.87
2018-10-17T21:59:39.535Z,10.47
2018-10-17T22:02:08.638Z,10.80
2018-10-17T22:04:37.603Z,11.00
2018-10-17T22:07:06.718Z,10.43
2018-10-17T22:09:35.786Z,11.07
2018-10-17T22:12:04.791Z,11.80
2018-10-17T22:14:33.831Z,11.17
2018-10-17T22:17:06.216Z,11.40
2018-10-17T22:19:36.496Z,11.37
2018-10-17T22:22:06.042Z,10.97
2018-10-17T22:24:35.096Z,11.50
2018-10-17T22:27:04.518Z,12.43
2018-10-17T22:29:33.667Z,11.60
2018-10-17T22:32:02.760Z,11.37
2018-10-17T22:34:31.775Z,11.50
2018-10-17T22:37:01.088Z,11.73
2018-10-17T22:39:30.331Z,11.43
2018-10-17T22:41:59.475Z,12.03
2018-10-17T22:44:28.676Z,11.80
2018-10-17T22:46:57.783Z,11.57
2018-10-17T22:49:26.847Z,11.50
2018-10-17T22:51:55.871Z,11.60
2018-10-17T22:54:25.564Z,11.97
2018-10-17T22:56:54.624Z,11.83
2018-10-17T22:59:23.676Z,11.43
2018-10-17T23:01:52.751Z,11.37
2018-10-17T23:04:21.783Z,11.47
2018-10-17T23:06:50.843Z,11.10
2018-10-17T23:09:19.873Z,12.00
2018-10-17T23:11:48.927Z,11.20
2018-10-17T23:14:18.001Z,11.20
2018-10-17T23:16:47.002Z,11.70
2018-10-17T23:19:16.099Z,11.03
2018-10-17T23:21:45.172Z,10.87
2018-10-17T23:24:14.236Z,11.17
2018-10-17T23:26:43.288Z,11.27
2018-10-17T23:29:12.438Z,12.03
2018-10-17T23:31:41.524Z,11.80
2018-10-17T23:34:10.567Z,11.73
2018-10-17T23:36:39.588Z,12.27
2018-10-17T23:39:09.175Z,11.50
2018-10-17T23:41:38.783Z,10.97
2018-10-17T23:44:07.858Z,11.43
2018-10-17T23:46:36.880Z,11.27
2018-10-17T23:49:08.963Z,12.27
2018-10-17T23:51:38.083Z,11.70
2018-10-17T23:54:07.211Z,11.50
2018-10-17T23:56:36.215Z,11.80
2018-10-17T23:59:05.423Z,12.60
